Time;durP1;ratioP1;P1;durP2;ratioP2;P2;SDS_P1;SDS_P2;PMS_P1;PMS_P2;Temp;Humidity;BMP_temperature;BMP_pressure;BME280_temperature;BME280_humidity;BME280_pressure;Samples;Min_cycle;Max_cycle;Signal;HPM_P1;HPM_P2
2021/09/12 00:03:57;;;;;;;14.97;4.63;;;;;;;;;;10358317;28;20109;-83
2021/09/12 00:08:57;;;;;;;6.00;4.57;;;;;;;;;;10354314;28;20460;-85
2021/09/12 00:13:57;;;;;;;8.63;4.70;;;;;;;;;;10364755;28;20068;-84
2021/09/12 00:18:58;;;;;;;12.03;4.93;;;;;;;;;;10374080;28;20919;-86
2021/09/12 00:23:59;;;;;;;7.90;4.60;;;;;;;;;;10360581;28;20064;-87
2021/09/12 00:28:59;;;;;;;7.20;4.72;;;;;;;;;;10391834;28;20022;-89
2021/09/12 00:34:00;;;;;;;5.80;5.00;;;;;;;;;;10337708;28;20073;-87
2021/09/12 00:39:00;;;;;;;4.70;3.90;;;;;;;;;;10363994;28;20449;-87
2021/09/12 00:44:01;;;;;;;10.10;4.93;;;;;;;;;;10362753;28;20100;-84
2021/09/12 00:49:01;;;;;;;9.27;5.38;;;;;;;;;;10377540;28;20452;-85
2021/09/12 00:54:03;;;;;;;6.03;4.23;;;;;;;;;;10345400;28;20034;-86
2021/09/12 00:59:07;;;;;;;8.27;4.32;;;;;;;;;;10376622;28;20525;-84
2021/09/12 01:04:08;;;;;;;6.82;4.20;;;;;;;;;;10376930;28;20034;-86
2021/09/12 01:09:08;;;;;;;6.07;4.38;;;;;;;;;;10376497;28;20401;-88
2021/09/12 01:14:10;;;;;;;17.27;4.57;;;;;;;;;;10376854;28;20108;-84
2021/09/12 01:19:10;;;;;;;11.57;4.40;;;;;;;;;;10364062;28;20031;-85
2021/09/12 01:24:11;;;;;;;9.37;4.60;;;;;;;;;;10366604;28;20038;-84
2021/09/12 01:29:14;;;;;;;6.43;4.03;;;;;;;;;;10382879;28;20448;-84
2021/09/12 01:34:15;;;;;;;9.68;4.07;;;;;;;;;;10361453;28;20034;-82
2021/09/12 01:39:15;;;;;;;7.25;4.28;;;;;;;;;;10345661;28;20026;-82
2021/09/12 01:44:22;;;;;;;4.80;4.30;;;;;;;;;;10377828;28;20053;-84
2021/09/12 01:49:23;;;;;;;7.10;4.18;;;;;;;;;;10372642;28;20022;-84
2021/09/12 01:54:24;;;;;;;18.92;4.05;;;;;;;;;;10358873;28;20045;-83
2021/09/12 01:59:24;;;;;;;6.63;3.83;;;;;;;;;;10373438;28;20026;-85
2021/09/12 02:04:24;;;;;;;6.50;3.70;;;;;;;;;;10357839;28;20463;-87
2021/09/12 02:09:27;;;;;;;8.17;3.80;;;;;;;;;;10362795;28;20492;-87
2021/09/12 02:14:27;;;;;;;7.50;4.35;;;;;;;;;;10386249;28;20463;-86
2021/09/12 02:19:28;;;;;;;5.83;4.03;;;;;;;;;;10374007;28;20053;-87
2021/09/12 02:24:28;;;;;;;10.03;3.93;;;;;;;;;;10346008;28;20104;-83
2021/09/12 02:29:28;;;;;;;8.17;3.83;;;;;;;;;;10357385;28;20458;-84
2021/09/12 02:34:29;;;;;;;8.20;4.50;;;;;;;;;;10355520;28;20487;-87
2021/09/12 02:39:29;;;;;;;7.60;4.20;;;;;;;;;;10357747;28;20363;-85
2021/09/12 02:44:29;;;;;;;8.97;4.03;;;;;;;;;;10375136;28;20108;-84
2021/09/12 02:49:30;;;;;;;10.00;4.27;;;;;;;;;;10387696;28;20033;-85
2021/09/12 02:54:30;;;;;;;5.67;4.17;;;;;;;;;;10386878;28;20117;-89
2021/09/12 02:59:31;;;;;;;8.67;3.97;;;;;;;;;;10369457;28;20454;-88
2021/09/12 03:04:31;;;;;;;4.75;3.90;;;;;;;;;;10386302;28;20815;-86
2021/09/12 03:09:32;;;;;;;5.37;3.77;;;;;;;;;;10386992;28;20029;-87
2021/09/12 03:14:32;;;;;;;5.80;4.10;;;;;;;;;;10386133;28;20148;-85
2021/09/12 03:19:33;;;;;;;7.47;3.80;;;;;;;;;;10386586;28;20073;-86
2021/09/12 03:24:33;;;;;;;4.63;3.78;;;;;;;;;;10386861;28;20455;-85
2021/09/12 03:29:33;;;;;;;6.55;4.00;;;;;;;;;;10386380;28;20032;-88
2021/09/12 03:34:34;;;;;;;20.93;4.30;;;;;;;;;;10354456;28;20108;-87
2021/09/12 03:39:34;;;;;;;11.60;4.17;;;;;;;;;;10384295;28;20034;-82
2021/09/12 03:44:35;;;;;;;10.13;4.10;;;;;;;;;;10360869;28;20057;-86
2021/09/12 03:49:35;;;;;;;7.33;4.30;;;;;;;;;;10366947;28;20474;-86
2021/09/12 03:54:35;;;;;;;8.47;3.70;;;;;;;;;;10386637;28;20071;-87
2021/09/12 03:59:36;;;;;;;9.93;3.63;;;;;;;;;;10371620;28;20027;-84
2021/09/12 04:04:36;;;;;;;6.33;3.50;;;;;;;;;;10366113;28;20034;-85
2021/09/12 04:09:36;;;;;;;12.60;4.03;;;;;;;;;;10371672;28;20473;-86
2021/09/12 04:14:37;;;;;;;6.83;3.77;;;;;;;;;;10377307;28;20073;-85
2021/09/12 04:19:37;;;;;;;5.27;3.73;;;;;;;;;;10384375;28;20436;-84
2021/09/12 04:24:38;;;;;;;7.70;3.50;;;;;;;;;;10363053;28;20053;-82
2021/09/12 04:29:39;;;;;;;7.18;3.38;;;;;;;;;;10350039;28;20467;-85
2021/09/12 04:34:39;;;;;;;6.45;3.50;;;;;;;;;;10363028;28;20029;-87
2021/09/12 04:39:40;;;;;;;6.57;3.85;;;;;;;;;;10365015;28;20050;-87
2021/09/12 04:44:40;;;;;;;9.88;3.42;;;;;;;;;;10378076;28;20049;-87
2021/09/12 04:49:40;;;;;;;3.53;3.10;;;;;;;;;;10387757;28;20121;-85
2021/09/12 04:54:42;;;;;;;6.47;3.70;;;;;;;;;;10388328;28;20034;-82
2021/09/12 04:59:42;;;;;;;5.57;3.60;;;;;;;;;;10388834;28;20971;-83
2021/09/12 05:04:42;;;;;;;4.37;3.40;;;;;;;;;;10391008;28;20037;-89
2021/09/12 05:09:43;;;;;;;7.23;3.93;;;;;;;;;;10390871;28;20026;-89
2021/09/12 05:14:43;;;;;;;5.67;3.30;;;;;;;;;;10390046;28;20032;-87
2021/09/12 05:19:43;;;;;;;11.03;3.73;;;;;;;;;;10372134;28;20026;-84
2021/09/12 05:24:44;;;;;;;6.47;3.10;;;;;;;;;;10388821;28;20049;-88
2021/09/12 05:29:44;;;;;;;8.17;3.90;;;;;;;;;;10389539;28;20962;-84
2021/09/12 05:34:45;;;;;;;4.23;3.20;;;;;;;;;;10386997;28;20475;-85
2021/09/12 05:39:45;;;;;;;5.90;3.13;;;;;;;;;;10386235;28;20083;-85
2021/09/12 05:44:46;;;;;;;4.27;3.03;;;;;;;;;;10374536;28;20057;-83
2021/09/12 05:49:46;;;;;;;4.28;3.17;;;;;;;;;;10364870;28;20448;-86
2021/09/12 05:54:46;;;;;;;5.97;3.00;;;;;;;;;;10374994;28;20118;-85
2021/09/12 05:59:47;;;;;;;4.23;3.40;;;;;;;;;;10368699;28;20431;-85
2021/09/12 06:04:47;;;;;;;7.13;3.38;;;;;;;;;;10341536;28;20460;-88
2021/09/12 06:09:48;;;;;;;6.53;3.00;;;;;;;;;;10375088;28;20026;-88
2021/09/12 06:14:48;;;;;;;4.23;3.47;;;;;;;;;;10374709;28;20022;-88
2021/09/12 06:19:49;;;;;;;4.63;3.40;;;;;;;;;;10367822;28;20041;-87
2021/09/12 06:24:49;;;;;;;5.00;3.15;;;;;;;;;;10367065;28;20450;-90
2021/09/12 06:29:49;;;;;;;5.97;3.47;;;;;;;;;;10338644;28;20386;-90
2021/09/12 06:34:50;;;;;;;5.17;3.10;;;;;;;;;;10347463;28;20460;-88
2021/09/12 06:39:50;;;;;;;3.70;2.80;;;;;;;;;;10346176;28;20069;-85
2021/09/12 06:44:50;;;;;;;5.70;3.03;;;;;;;;;;10373036;28;20052;-86
2021/09/12 06:49:51;;;;;;;5.70;2.93;;;;;;;;;;10385056;28;20034;-85
2021/09/12 06:54:51;;;;;;;4.57;3.27;;;;;;;;;;10381532;28;20489;-82
2021/09/12 06:59:52;;;;;;;3.93;3.10;;;;;;;;;;10381244;28;20053;-84
2021/09/12 07:04:52;;;;;;;7.90;3.17;;;;;;;;;;10383056;28;20466;-84
2021/09/12 07:09:52;;;;;;;10.23;3.70;;;;;;;;;;10380842;28;20038;-84
2021/09/12 07:14:53;;;;;;;4.82;2.92;;;;;;;;;;10382614;28;20038;-81
2021/09/12 07:19:53;;;;;;;3.80;2.93;;;;;;;;;;10383290;28;20053;-83
2021/09/12 07:24:53;;;;;;;4.47;3.50;;;;;;;;;;10382912;28;20022;-83
2021/09/12 07:29:54;;;;;;;9.73;3.47;;;;;;;;;;10385940;28;20026;-81
2021/09/12 07:34:54;;;;;;;7.70;3.30;;;;;;;;;;10392380;28;20042;-82
2021/09/12 07:39:55;;;;;;;7.25;3.08;;;;;;;;;;10393205;28;20072;-85
2021/09/12 07:44:55;;;;;;;5.15;4.07;;;;;;;;;;10439068;23;20064;-92
2021/09/12 07:49:56;;;;;;;7.17;3.97;;;;;;;;;;10353215;28;20030;-92
2021/09/12 07:54:56;;;;;;;8.77;4.20;;;;;;;;;;10344496;28;20544;-93
2021/09/12 07:59:57;;;;;;;5.10;3.80;;;;;;;;;;10363943;28;20025;-91
2021/09/12 08:04:58;;;;;;;7.05;3.97;;;;;;;;;;10348605;28;20033;-93
2021/09/12 08:09:59;;;;;;;4.78;3.67;;;;;;;;;;10348335;28;20030;-93
2021/09/12 08:15:00;;;;;;;8.70;4.63;;;;;;;;;;10364260;28;20030;-91
2021/09/12 08:20:00;;;;;;;8.68;4.10;;;;;;;;;;10363324;28;20041;-87
2021/09/12 08:25:00;;;;;;;6.65;4.10;;;;;;;;;;10379832;28;20125;-89
2021/09/12 08:30:01;;;;;;;8.60;4.10;;;;;;;;;;10381584;28;20105;-88
2021/09/12 08:35:02;;;;;;;5.18;3.33;;;;;;;;;;10364194;28;20030;-89
2021/09/12 08:40:04;;;;;;;6.65;4.30;;;;;;;;;;10347073;28;20037;-90
2021/09/12 08:45:05;;;;;;;6.63;3.97;;;;;;;;;;10345953;28;20497;-91
2021/09/12 08:50:06;;;;;;;5.20;3.92;;;;;;;;;;10362828;28;20036;-89
2021/09/12 08:55:07;;;;;;;6.95;4.35;;;;;;;;;;10362823;28;20032;-87
2021/09/12 09:00:14;;;;;;;9.77;4.00;;;;;;;;;;10361736;28;20084;-86
2021/09/12 09:05:15;;;;;;;10.15;4.18;;;;;;;;;;10378441;28;20022;-88
2021/09/12 09:10:19;;;;;;;11.80;4.80;;;;;;;;;;10361984;28;20496;-89
2021/09/12 09:15:20;;;;;;;6.45;4.10;;;;;;;;;;10361482;28;20030;-90
2021/09/12 09:20:32;;;;;;;6.78;4.07;;;;;;;;;;10345057;28;20121;-89
2021/09/12 09:25:33;;;;;;;7.63;4.55;;;;;;;;;;10261888;28;20047;-90
2021/09/12 09:30:54;;;;;;;8.05;4.72;;;;;;;;;;10293637;28;20129;-87
2021/09/12 09:35:59;;;;;;;4.45;3.95;;;;;;;;;;10253300;28;20468;-90
2021/09/12 09:41:06;;;;;;;6.03;4.03;;;;;;;;;;10294717;28;20427;-85
2021/09/12 09:46:25;;;;;;;7.10;3.70;;;;;;;;;;10278615;28;20034;-87
2021/09/12 09:51:26;;;;;;;4.63;3.33;;;;;;;;;;10270514;28;20054;-85
2021/09/12 09:56:28;;;;;;;6.55;3.42;;;;;;;;;;10282308;28;20067;-86
2021/09/12 10:01:29;;;;;;;8.70;3.88;;;;;;;;;;10255252;28;20436;-85
2021/09/12 10:06:30;;;;;;;5.07;3.38;;;;;;;;;;10280522;28;20062;-86
2021/09/12 10:11:31;;;;;;;4.85;3.60;;;;;;;;;;10295705;28;20058;-89
2021/09/12 10:16:32;;;;;;;5.63;3.30;;;;;;;;;;10258071;28;20046;-88
2021/09/12 10:21:34;;;;;;;8.27;3.65;;;;;;;;;;10284079;28;20487;-86
2021/09/12 10:26:38;;;;;;;5.75;3.75;;;;;;;;;;10274072;28;20069;-85
2021/09/12 10:31:38;;;;;;;6.40;3.50;;;;;;;;;;10293957;28;20049;-86
2021/09/12 10:36:40;;;;;;;8.25;3.85;;;;;;;;;;10279762;28;20033;-88
2021/09/12 10:41:41;;;;;;;7.22;3.65;;;;;;;;;;10243218;28;20388;-89
2021/09/12 10:46:41;;;;;;;6.67;2.80;;;;;;;;;;10280625;28;20031;-83
2021/09/12 10:51:42;;;;;;;4.30;3.17;;;;;;;;;;10267486;28;20989;-81
2021/09/12 10:56:43;;;;;;;5.38;3.28;;;;;;;;;;10249827;28;20035;-82
2021/09/12 11:01:49;;;;;;;5.07;3.17;;;;;;;;;;10269432;28;20082;-84
2021/09/12 11:07:04;;;;;;;5.50;3.15;;;;;;;;;;10248836;28;20039;-84
2021/09/12 11:12:05;;;;;;;5.32;2.90;;;;;;;;;;10261104;28;20109;-82
2021/09/12 11:17:12;;;;;;;3.53;3.22;;;;;;;;;;10257494;28;20443;-84
2021/09/12 11:22:12;;;;;;;4.47;2.90;;;;;;;;;;10263123;28;20450;-82
2021/09/12 11:27:12;;;;;;;4.65;3.53;;;;;;;;;;10254678;28;20066;-82
2021/09/12 11:32:14;;;;;;;5.47;2.97;;;;;;;;;;10277031;28;20526;-85
2021/09/12 11:37:18;;;;;;;3.58;2.90;;;;;;;;;;10239499;28;20475;-81
2021/09/12 11:42:19;;;;;;;3.50;3.20;;;;;;;;;;10261888;28;20073;-84
2021/09/12 11:47:21;;;;;;;4.97;2.80;;;;;;;;;;10253010;28;20122;-83
2021/09/12 11:52:33;;;;;;;6.40;3.10;;;;;;;;;;10275008;28;20023;-82
2021/09/12 11:57:34;;;;;;;3.13;2.83;;;;;;;;;;10275161;28;20117;-82
2021/09/12 12:02:34;;;;;;;6.10;3.20;;;;;;;;;;10262633;28;20483;-81
2021/09/12 12:07:36;;;;;;;4.05;2.88;;;;;;;;;;10275752;28;20577;-87
2021/09/12 12:12:38;;;;;;;4.22;2.60;;;;;;;;;;10277134;28;20450;-87
2021/09/12 12:17:50;;;;;;;4.22;2.83;;;;;;;;;;10259342;28;20035;-84
2021/09/12 12:22:50;;;;;;;3.53;2.90;;;;;;;;;;10261176;28;20081;-84
2021/09/12 12:27:51;;;;;;;3.35;2.97;;;;;;;;;;10295379;28;20065;-86
2021/09/12 12:32:51;;;;;;;7.60;3.07;;;;;;;;;;10261631;28;20024;-85
2021/09/12 12:37:52;;;;;;;3.77;3.00;;;;;;;;;;10271691;28;20361;-85
2021/09/12 12:43:04;;;;;;;4.30;3.03;;;;;;;;;;10271379;28;20075;-85
2021/09/12 12:48:07;;;;;;;4.70;3.40;;;;;;;;;;10269898;28;20117;-84
2021/09/12 12:58:24;;;;;;;5.00;2.92;;;;;;;;;;10257273;28;20475;-86
2021/09/12 13:03:25;;;;;;;7.13;3.30;;;;;;;;;;10270383;28;20038;-86
2021/09/12 13:08:26;;;;;;;6.88;3.10;;;;;;;;;;10270935;28;20041;-87
2021/09/12 13:13:26;;;;;;;3.42;2.92;;;;;;;;;;10267363;28;20118;-84
2021/09/12 13:18:27;;;;;;;4.10;2.90;;;;;;;;;;10257303;28;20474;-81
2021/09/12 13:23:27;;;;;;;3.80;3.30;;;;;;;;;;10278885;28;20530;-81
2021/09/12 13:28:28;;;;;;;4.67;3.27;;;;;;;;;;10258469;28;20466;-80
2021/09/12 13:33:30;;;;;;;4.25;3.03;;;;;;;;;;10256926;28;20034;-86
2021/09/12 13:38:40;;;;;;;5.50;3.40;;;;;;;;;;10267985;28;20057;-91
2021/09/12 13:43:42;;;;;;;9.20;3.15;;;;;;;;;;10264963;28;20103;-87
2021/09/12 13:48:42;;;;;;;5.35;3.28;;;;;;;;;;10266529;28;20027;-92
2021/09/12 13:53:43;;;;;;;5.25;3.42;;;;;;;;;;10259261;28;20038;-93
2021/09/12 13:58:43;;;;;;;5.22;3.70;;;;;;;;;;10274835;28;20431;-86
2021/09/12 14:03:44;;;;;;;4.33;3.40;;;;;;;;;;10278655;28;20062;-92
2021/09/12 14:08:44;;;;;;;6.35;3.40;;;;;;;;;;10301772;28;20026;-94
2021/09/12 14:14:08;;;;;;;4.18;3.38;;;;;;;;;;10247477;28;20030;-92
2021/09/12 14:19:09;;;;;;;5.97;3.90;;;;;;;;;;10260861;28;20042;-91
2021/09/12 14:24:09;;;;;;;4.25;3.35;;;;;;;;;;10254477;28;20483;-89
2021/09/12 14:29:10;;;;;;;4.93;3.42;;;;;;;;;;10258711;28;20098;-87
2021/09/12 14:34:10;;;;;;;5.45;3.67;;;;;;;;;;10294168;28;20035;-89
2021/09/12 14:39:11;;;;;;;5.32;3.80;;;;;;;;;;10277076;28;20078;-82
2021/09/12 14:44:11;;;;;;;9.73;3.90;;;;;;;;;;10322159;28;20046;-83
2021/09/12 14:49:11;;;;;;;5.80;3.37;;;;;;;;;;10324271;28;20460;-87
2021/09/12 14:54:12;;;;;;;10.73;3.13;;;;;;;;;;10304040;28;20090;-85
2021/09/12 14:59:13;;;;;;;4.50;3.33;;;;;;;;;;10330615;28;20489;-86
2021/09/12 15:04:14;;;;;;;3.88;3.40;;;;;;;;;;10334506;28;20359;-86
2021/09/12 15:09:14;;;;;;;9.10;3.88;;;;;;;;;;10320625;28;20042;-85
2021/09/12 15:14:15;;;;;;;9.83;3.57;;;;;;;;;;10314556;28;20042;-82
2021/09/12 15:19:15;;;;;;;5.67;4.53;;;;;;;;;;10323706;28;20028;-82
2021/09/12 15:24:16;;;;;;;5.20;3.90;;;;;;;;;;10321251;28;20033;-83
2021/09/12 15:29:16;;;;;;;5.28;3.83;;;;;;;;;;10305789;28;20485;-84
2021/09/12 15:34:22;;;;;;;5.90;3.38;;;;;;;;;;10306091;28;20479;-82
2021/09/12 15:39:23;;;;;;;6.38;3.92;;;;;;;;;;10305282;28;20125;-85
2021/09/12 15:44:23;;;;;;;7.13;3.70;;;;;;;;;;10316916;28;20487;-85
2021/09/12 15:49:24;;;;;;;5.33;3.80;;;;;;;;;;10312933;28;20061;-85
2021/09/12 15:54:25;;;;;;;4.23;3.43;;;;;;;;;;10325351;28;20027;-83
2021/09/12 15:59:26;;;;;;;4.25;3.38;;;;;;;;;;10340313;28;20571;-83
2021/09/12 16:04:28;;;;;;;4.68;3.33;;;;;;;;;;10321732;28;20053;-82
2021/09/12 16:09:28;;;;;;;6.75;3.42;;;;;;;;;;10335809;28;20038;-85
2021/09/12 16:14:29;;;;;;;8.82;4.15;;;;;;;;;;10335752;28;20386;-85
2021/09/12 16:19:29;;;;;;;4.70;3.87;;;;;;;;;;10324174;28;20377;-87
2021/09/12 16:24:29;;;;;;;13.23;3.47;;;;;;;;;;10338532;28;20030;-81
2021/09/12 16:29:31;;;;;;;5.03;3.73;;;;;;;;;;10323099;28;20054;-81
2021/09/12 16:34:31;;;;;;;5.55;3.47;;;;;;;;;;10333746;28;20153;-87
2021/09/12 16:39:32;;;;;;;7.27;3.37;;;;;;;;;;10334968;28;20181;-86
2021/09/12 16:44:34;;;;;;;10.50;3.60;;;;;;;;;;10339456;28;20456;-88
2021/09/12 16:49:35;;;;;;;4.85;3.10;;;;;;;;;;10321751;28;20460;-86
2021/09/12 16:54:35;;;;;;;5.53;3.90;;;;;;;;;;10337764;28;20018;-82
2021/09/12 16:59:36;;;;;;;6.23;3.70;;;;;;;;;;10338491;28;20491;-83
2021/09/12 17:04:37;;;;;;;6.47;3.42;;;;;;;;;;10336297;28;20023;-80
2021/09/12 17:09:37;;;;;;;9.25;3.65;;;;;;;;;;10337604;28;20459;-79
2021/09/12 17:14:38;;;;;;;10.53;3.53;;;;;;;;;;10317179;28;20034;-81
2021/09/12 17:19:38;;;;;;;11.10;3.33;;;;;;;;;;10336526;28;20046;-80
2021/09/12 17:24:38;;;;;;;8.23;3.60;;;;;;;;;;10335429;28;20027;-80
2021/09/12 17:29:39;;;;;;;7.07;3.30;;;;;;;;;;10334818;28;20030;-80
2021/09/12 17:34:39;;;;;;;5.40;3.30;;;;;;;;;;10336064;28;20026;-80
2021/09/12 17:39:40;;;;;;;6.53;3.25;;;;;;;;;;10335842;28;20045;-79
2021/09/12 17:44:40;;;;;;;4.73;3.20;;;;;;;;;;10336442;28;20463;-80
2021/09/12 17:49:40;;;;;;;5.33;3.40;;;;;;;;;;10336311;28;20034;-80
2021/09/12 17:54:41;;;;;;;7.07;3.43;;;;;;;;;;10335830;28;20030;-79
2021/09/12 17:59:41;;;;;;;5.28;2.88;;;;;;;;;;10335878;28;20034;-81
2021/09/12 18:04:42;;;;;;;8.73;3.60;;;;;;;;;;10334324;28;20049;-80
2021/09/12 18:09:42;;;;;;;5.17;3.20;;;;;;;;;;10331768;28;20800;-79
2021/09/12 18:14:43;;;;;;;6.07;3.33;;;;;;;;;;10317175;28;20026;-80
2021/09/12 18:19:43;;;;;;;8.50;3.10;;;;;;;;;;10313657;28;20053;-80
2021/09/12 18:24:44;;;;;;;5.68;3.00;;;;;;;;;;10334267;28;20529;-80
2021/09/12 18:29:44;;;;;;;4.93;3.30;;;;;;;;;;10318700;28;20038;-79
2021/09/12 18:34:44;;;;;;;7.37;3.83;;;;;;;;;;10301514;28;20026;-79
2021/09/12 18:39:45;;;;;;;9.13;4.03;;;;;;;;;;10322125;28;20494;-80
2021/09/12 18:44:45;;;;;;;9.60;4.53;;;;;;;;;;10329029;28;20482;-79
2021/09/12 18:49:45;;;;;;;12.20;4.50;;;;;;;;;;10319750;28;20048;-80
2021/09/12 18:54:46;;;;;;;11.47;4.37;;;;;;;;;;10332903;28;20068;-80
2021/09/12 18:59:47;;;;;;;8.23;5.15;;;;;;;;;;10332049;28;20034;-79
2021/09/12 19:04:47;;;;;;;6.07;4.10;;;;;;;;;;10327591;28;20034;-80
2021/09/12 19:09:47;;;;;;;8.40;4.63;;;;;;;;;;10332287;28;20054;-79
2021/09/12 19:14:48;;;;;;;9.50;5.20;;;;;;;;;;10332470;28;20459;-80
2021/09/12 19:19:48;;;;;;;9.57;5.20;;;;;;;;;;10317531;28;20023;-79
2021/09/12 19:24:49;;;;;;;9.37;5.10;;;;;;;;;;10325964;28;20054;-81
2021/09/12 19:29:49;;;;;;;10.15;4.82;;;;;;;;;;10323874;28;20487;-80
2021/09/12 19:34:50;;;;;;;13.80;5.05;;;;;;;;;;10339504;28;20109;-79
2021/09/12 19:39:50;;;;;;;7.60;4.73;;;;;;;;;;10340553;28;20023;-80
2021/09/12 19:44:51;;;;;;;9.43;4.18;;;;;;;;;;10396302;23;20494;-81
2021/09/12 19:49:54;;;;;;;13.23;5.17;;;;;;;;;;10374960;28;20038;-83
2021/09/12 19:54:54;;;;;;;9.20;4.90;;;;;;;;;;10371593;28;20026;-81
2021/09/12 19:59:55;;;;;;;7.53;4.60;;;;;;;;;;10373755;28;20478;-83
2021/09/12 20:04:55;;;;;;;9.80;4.67;;;;;;;;;;10373497;28;20030;-82
2021/09/12 20:09:55;;;;;;;8.27;4.57;;;;;;;;;;10368786;28;20449;-82
2021/09/12 20:14:56;;;;;;;9.67;4.67;;;;;;;;;;10362877;28;20041;-82
2021/09/12 20:19:57;;;;;;;11.27;5.47;;;;;;;;;;10380876;28;20104;-80
2021/09/12 20:24:58;;;;;;;8.10;5.20;;;;;;;;;;10374162;28;20161;-79
2021/09/12 20:29:58;;;;;;;7.57;5.17;;;;;;;;;;10360889;28;20156;-80
2021/09/12 20:34:59;;;;;;;11.07;5.25;;;;;;;;;;10371066;28;20493;-81
2021/09/12 20:40:00;;;;;;;10.82;5.75;;;;;;;;;;10377900;28;20111;-83
2021/09/12 20:45:00;;;;;;;19.05;6.72;;;;;;;;;;10376425;28;20049;-90
2021/09/12 20:50:01;;;;;;;8.82;5.47;;;;;;;;;;10355155;28;20036;-84
2021/09/12 20:55:03;;;;;;;10.27;5.90;;;;;;;;;;10375454;28;20505;-81
2021/09/12 21:00:05;;;;;;;18.08;5.25;;;;;;;;;;10380962;28;20438;-84
2021/09/12 21:05:06;;;;;;;19.83;5.53;;;;;;;;;;10384172;28;20434;-86
2021/09/12 21:10:14;;;;;;;9.68;5.40;;;;;;;;;;10371682;28;20030;-84
2021/09/12 21:15:15;;;;;;;7.05;4.45;;;;;;;;;;10364209;28;20029;-87
2021/09/12 21:20:15;;;;;;;10.15;5.10;;;;;;;;;;10373275;28;20065;-84
2021/09/12 21:25:16;;;;;;;11.43;5.10;;;;;;;;;;10365892;28;20041;-85
2021/09/12 21:30:16;;;;;;;14.17;5.10;;;;;;;;;;10375820;28;20521;-85
2021/09/12 21:35:17;;;;;;;6.70;4.97;;;;;;;;;;10353900;28;20459;-85
2021/09/12 21:40:17;;;;;;;6.47;4.20;;;;;;;;;;10375917;28;20029;-86
2021/09/12 21:45:18;;;;;;;5.30;4.80;;;;;;;;;;10377823;28;20462;-83
2021/09/12 21:50:18;;;;;;;8.10;4.60;;;;;;;;;;10354247;28;20429;-84
2021/09/12 21:55:19;;;;;;;7.27;4.93;;;;;;;;;;10344072;28;20561;-85
2021/09/12 22:00:20;;;;;;;6.28;4.55;;;;;;;;;;10368373;28;20472;-87
2021/09/12 22:05:21;;;;;;;11.00;4.85;;;;;;;;;;10351148;28;20022;-87
2021/09/12 22:10:22;;;;;;;7.72;4.35;;;;;;;;;;10343689;28;20034;-86
2021/09/12 22:15:22;;;;;;;9.68;4.63;;;;;;;;;;10363919;28;20123;-84
2021/09/12 22:20:22;;;;;;;6.47;4.38;;;;;;;;;;10368190;28;20117;-84
2021/09/12 22:25:23;;;;;;;7.65;4.38;;;;;;;;;;10375855;28;20042;-86
2021/09/12 22:30:23;;;;;;;8.95;4.25;;;;;;;;;;10378865;28;20034;-85
2021/09/12 22:35:24;;;;;;;6.40;4.60;;;;;;;;;;10378814;28;20454;-84
2021/09/12 22:40:24;;;;;;;13.88;4.10;;;;;;;;;;10357375;28;20516;-82
2021/09/12 22:45:25;;;;;;;9.80;4.00;;;;;;;;;;10357249;28;20140;-82
2021/09/12 22:50:25;;;;;;;8.15;4.03;;;;;;;;;;10363135;28;20057;-82
2021/09/12 22:55:26;;;;;;;5.20;3.90;;;;;;;;;;10363664;28;20025;-82
2021/09/12 23:00:26;;;;;;;5.50;4.13;;;;;;;;;;10376023;28;20566;-82
2021/09/12 23:05:27;;;;;;;10.20;3.67;;;;;;;;;;10373043;28;20030;-83
2021/09/12 23:10:27;;;;;;;5.18;3.88;;;;;;;;;;10365232;28;20444;-82
2021/09/12 23:15:28;;;;;;;6.35;3.75;;;;;;;;;;10372439;28;20034;-81
2021/09/12 23:20:28;;;;;;;7.30;3.53;;;;;;;;;;10364390;28;20048;-82
2021/09/12 23:25:29;;;;;;;4.07;3.67;;;;;;;;;;10376320;28;20093;-82
2021/09/12 23:30:29;;;;;;;6.43;3.60;;;;;;;;;;10376354;28;20022;-81
2021/09/12 23:35:30;;;;;;;4.75;3.42;;;;;;;;;;10375465;28;20037;-84
2021/09/12 23:40:30;;;;;;;6.82;3.78;;;;;;;;;;10362187;28;20036;-83
2021/09/12 23:45:30;;;;;;;6.40;3.87;;;;;;;;;;10354481;28;20050;-82
2021/09/12 23:50:31;;;;;;;5.03;3.47;;;;;;;;;;10349387;28;20512;-83
2021/09/12 23:55:32;;;;;;;4.28;3.30;;;;;;;;;;10355304;28;20105;-83
